Accueil
METAR-TAF:

METAR-TAF

Aéroports :

Anchorage, Alaska, États-Unis

latitude: 61-11N, longitude: 149-58W, altitude: 22 m

Observation

Le bulletin a été fait il y a 21 minutes, à 22:53 UTC
Vent 8 kt de sud avec des rafales jusqu'à 17 kt
Température 7°C
Humidité 61%
Pression 987 hPa
Visibilité: 16.1 km
Nuages fragmentés à une hauteur de 9500 ft

METAR: PALH 202253Z 17008G17KT 10SM BKN095 07/00 A2916 RMK AO2 SLP876 T00720000

Heure: 14:14 (23:14 UTC)


TAF: absent

Observations et prévisions météorologiques de plus de 4000 aéroports (messages METAR et TAF).

Les stations disponibles sont représentées par des disques jaunes et rouges sur la carte.

Passer la souris dessus pour voir le nom de la station.

Cliquer dessus pour voir les observations et prévisions météorologiques.

Pour changer de carte: cliquez sur les boutons verts avec une croix noire pour zoomer, sur le bouton vert avec un tiret pour effectuer un zoom arrière, ou sur les flèches vertes pour les cartes adjacentes.


METAR-TAF: